createdAt,value
2018-07-15T00:02:06.052Z,101818.61
2018-07-15T00:04:34.252Z,101813.13
2018-07-15T00:07:02.310Z,101810.52
2018-07-15T00:09:30.331Z,101821.51
2018-07-15T00:11:58.384Z,101819.41
2018-07-15T00:14:26.447Z,101815.97
2018-07-15T00:16:54.484Z,101818.61
2018-07-15T00:19:22.511Z,101815.91
2018-07-15T00:21:50.549Z,101819.03
2018-07-15T00:24:18.583Z,101815.55
2018-07-15T00:26:46.617Z,101820.93
2018-07-15T00:29:14.649Z,101821.13
2018-07-15T00:31:42.692Z,101820.08
2018-07-15T00:34:10.709Z,101819.90
2018-07-15T00:36:38.744Z,101823.36
2018-07-15T00:39:07.141Z,101821.82
2018-07-15T00:41:35.216Z,101826.63
2018-07-15T00:44:03.473Z,101818.64
2018-07-15T00:46:31.528Z,101815.71
2018-07-15T00:48:59.583Z,101818.77
2018-07-15T00:51:27.624Z,101815.50
2018-07-15T00:53:55.813Z,101812.58
2018-07-15T00:56:23.897Z,101816.82
2018-07-15T00:58:51.936Z,101817.50
2018-07-15T01:01:19.968Z,101812.02
2018-07-15T01:03:48.026Z,101817.99
2018-07-15T01:06:16.092Z,101820.62
2018-07-15T01:08:44.134Z,101819.38
2018-07-15T01:11:12.169Z,101813.91
2018-07-15T01:13:40.200Z,101814.31
2018-07-15T01:16:08.253Z,101822.76
2018-07-15T01:18:36.404Z,101817.61
2018-07-15T01:21:04.469Z,101821.52
2018-07-15T01:23:32.525Z,101822.42
2018-07-15T01:26:00.573Z,101826.92
2018-07-15T01:28:28.634Z,101826.66
2018-07-15T01:30:56.664Z,101828.38
2018-07-15T01:33:24.809Z,101822.59
2018-07-15T01:35:52.833Z,101826.84
2018-07-15T01:38:20.872Z,101822.19
2018-07-15T01:40:48.912Z,101825.30
2018-07-15T01:43:16.954Z,101826.75
2018-07-15T01:45:44.992Z,101823.72
2018-07-15T01:48:13.061Z,101817.67
2018-07-15T01:50:41.086Z,101824.39
2018-07-15T01:53:09.128Z,101824.46
2018-07-15T01:55:45.240Z,101821.53
2018-07-15T01:58:13.276Z,101822.50
2018-07-15T02:00:41.342Z,101828.38
2018-07-15T02:03:09.369Z,101822.91
2018-07-15T02:05:37.418Z,101816.30
2018-07-15T02:08:05.707Z,101817.19
2018-07-15T02:10:33.752Z,101819.81
2018-07-15T02:13:01.811Z,101823.78
2018-07-15T02:15:29.851Z,101819.23
2018-07-15T02:17:57.889Z,101818.47
2018-07-15T02:20:26.104Z,101812.20
2018-07-15T02:22:54.139Z,101815.28
2018-07-15T02:25:22.165Z,101818.64
2018-07-15T02:27:50.207Z,101819.20
2018-07-15T02:30:18.232Z,101819.54
2018-07-15T02:32:46.273Z,101817.39
2018-07-15T02:35:14.344Z,101820.17
2018-07-15T02:37:42.410Z,101813.90
2018-07-15T02:40:10.428Z,101817.23
2018-07-15T02:42:38.495Z,101812.02
2018-07-15T02:45:06.545Z,101812.58
2018-07-15T02:47:34.572Z,101817.30
2018-07-15T02:50:02.623Z,101813.47
2018-07-15T02:52:30.680Z,101813.54
2018-07-15T02:54:58.716Z,101813.88
2018-07-15T02:57:26.780Z,101818.09
2018-07-15T02:59:54.864Z,101815.98
2018-07-15T03:02:22.911Z,101816.28
2018-07-15T03:04:50.967Z,101817.14
2018-07-15T03:07:18.993Z,101813.88
2018-07-15T03:09:47.033Z,101811.92
2018-07-15T03:12:15.062Z,101817.48
2018-07-15T03:14:43.104Z,101811.43
2018-07-15T03:17:11.161Z,101810.05
2018-07-15T03:19:39.184Z,101814.77
2018-07-15T03:22:07.726Z,101815.36
2018-07-15T03:24:35.780Z,101810.45
2018-07-15T03:27:03.800Z,101812.23
2018-07-15T03:29:31.833Z,101814.27
2018-07-15T03:31:59.862Z,101818.72
2018-07-15T03:34:27.896Z,101815.12
2018-07-15T03:36:55.928Z,101817.41
2018-07-15T03:39:23.983Z,101816.84
2018-07-15T03:41:52.012Z,101808.52
2018-07-15T03:44:20.049Z,101810.97
2018-07-15T03:46:48.131Z,101811.80
2018-07-15T03:49:16.176Z,101813.67
2018-07-15T03:51:44.218Z,101816.16
2018-07-15T03:54:12.261Z,101813.11
2018-07-15T03:56:40.307Z,101811.99
2018-07-15T03:59:08.362Z,101813.37
2018-07-15T04:01:36.396Z,101816.94
2018-07-15T04:04:04.456Z,101819.16
2018-07-15T04:06:32.501Z,101815.49
2018-07-15T04:09:00.622Z,101817.94
2018-07-15T04:11:28.588Z,101822.85
2018-07-15T04:13:56.648Z,101817.24
2018-07-15T04:16:24.673Z,101822.42
2018-07-15T04:18:52.712Z,101815.98
2018-07-15T04:21:20.748Z,101815.00
2018-07-15T04:23:48.789Z,101809.37
2018-07-15T04:26:16.831Z,101812.02
2018-07-15T04:28:44.864Z,101809.97
2018-07-15T04:31:12.891Z,101815.61
2018-07-15T04:33:40.959Z,101817.09
2018-07-15T04:36:08.997Z,101811.13
2018-07-15T04:38:37.028Z,101808.71
2018-07-15T04:41:05.056Z,101812.13
2018-07-15T04:43:33.112Z,101802.02
2018-07-15T04:46:01.136Z,101809.03
2018-07-15T04:48:29.164Z,101809.34
2018-07-15T04:50:57.208Z,101807.14
2018-07-15T04:53:25.227Z,101812.47
2018-07-15T04:55:53.276Z,101806.66
2018-07-15T04:58:21.336Z,101809.92
2018-07-15T05:00:49.388Z,101812.92
2018-07-15T05:03:17.472Z,101811.52
2018-07-15T05:05:45.519Z,101812.03
2018-07-15T05:08:13.568Z,101811.08
2018-07-15T05:10:41.600Z,101806.80
2018-07-15T05:13:09.628Z,101802.75
2018-07-15T05:15:37.663Z,101812.03
2018-07-15T05:18:05.692Z,101810.75
2018-07-15T05:20:33.733Z,101809.34
2018-07-15T05:23:01.757Z,101813.86
2018-07-15T05:25:29.824Z,101815.34
2018-07-15T05:27:57.856Z,101810.08
2018-07-15T05:30:25.916Z,101810.78
2018-07-15T05:32:53.956Z,101810.02
2018-07-15T05:35:21.994Z,101808.95
2018-07-15T05:37:50.015Z,101810.14
2018-07-15T05:40:18.052Z,101811.12
2018-07-15T05:42:46.099Z,101818.48
2018-07-15T05:45:14.152Z,101815.83
2018-07-15T05:47:42.241Z,101819.58
2018-07-15T05:50:10.281Z,101820.54
2018-07-15T05:52:38.312Z,101815.23
2018-07-15T05:55:06.392Z,101813.52
2018-07-15T05:57:34.443Z,101817.01
2018-07-15T06:00:02.492Z,101815.52
2018-07-15T06:02:30.512Z,101819.13
2018-07-15T06:04:58.552Z,101820.42
2018-07-15T06:07:26.583Z,101820.64
2018-07-15T06:09:54.632Z,101826.23
2018-07-15T06:12:22.664Z,101826.01
2018-07-15T06:14:50.701Z,101829.27
2018-07-15T06:17:18.752Z,101832.05
2018-07-15T06:19:46.784Z,101835.97
2018-07-15T06:22:14.923Z,101835.30
2018-07-15T06:24:42.964Z,101827.27
2018-07-15T06:27:11.008Z,101828.49
2018-07-15T06:29:39.086Z,101827.30
2018-07-15T06:32:07.154Z,101828.88
2018-07-15T06:34:35.181Z,101827.58
2018-07-15T06:37:03.325Z,101830.89
2018-07-15T06:39:31.347Z,101832.23
2018-07-15T06:41:59.388Z,101838.80
2018-07-15T06:44:27.421Z,101839.89
2018-07-15T06:46:55.464Z,101832.45
2018-07-15T06:49:23.550Z,101833.28
2018-07-15T06:51:51.532Z,101834.59
2018-07-15T06:54:19.576Z,101831.56
2018-07-15T06:56:47.608Z,101828.00
2018-07-15T06:59:15.648Z,101826.70
2018-07-15T07:01:43.687Z,101826.06
2018-07-15T07:04:11.739Z,101831.85
2018-07-15T07:06:39.772Z,101827.95
2018-07-15T07:09:08.245Z,101832.66
2018-07-15T07:11:37.220Z,101830.16
2018-07-15T07:14:05.495Z,101835.03
2018-07-15T07:16:33.712Z,101825.66
2018-07-15T07:19:01.761Z,101825.73
2018-07-15T07:21:29.832Z,101826.72
2018-07-15T07:23:57.872Z,101825.58
2018-07-15T07:26:25.957Z,101835.84
2018-07-15T07:28:54.055Z,101828.39
2018-07-15T07:31:22.098Z,101836.88
2018-07-15T07:33:50.137Z,101833.20
2018-07-15T07:36:18.228Z,101834.19
2018-07-15T07:38:46.360Z,101829.95
2018-07-15T07:41:14.426Z,101832.32
2018-07-15T07:43:42.420Z,101838.86
2018-07-15T07:46:10.493Z,101828.74
2018-07-15T07:48:38.536Z,101825.89
2018-07-15T07:51:06.587Z,101828.62
2018-07-15T07:53:34.611Z,101824.27
2018-07-15T07:56:02.699Z,101826.23
2018-07-15T07:58:30.736Z,101816.94
2018-07-15T08:00:58.804Z,101822.44
2018-07-15T08:03:26.844Z,101824.44
2018-07-15T08:05:54.920Z,101818.02
2018-07-15T08:08:22.952Z,101821.49
2018-07-15T08:10:51.000Z,101808.89
2018-07-15T08:13:19.056Z,101810.67
2018-07-15T08:15:47.101Z,101814.02
2018-07-15T08:18:15.148Z,101816.50
2018-07-15T08:20:43.231Z,101819.48
2018-07-15T08:23:11.320Z,101816.48
2018-07-15T08:25:39.352Z,101814.47
2018-07-15T08:28:07.502Z,101816.91
2018-07-15T08:30:46.811Z,101819.53
2018-07-15T08:33:14.877Z,101816.77
2018-07-15T08:35:42.955Z,101816.97
2018-07-15T08:38:11.040Z,101815.93
2018-07-15T08:40:39.182Z,101812.05
2018-07-15T08:43:07.231Z,101814.94
2018-07-15T08:45:35.269Z,101812.51
2018-07-15T08:48:03.347Z,101812.05
2018-07-15T08:50:31.395Z,101809.94
2018-07-15T08:52:59.472Z,101808.30
2018-07-15T08:55:27.507Z,101809.44
2018-07-15T08:57:55.573Z,101808.28
2018-07-15T09:00:23.632Z,101808.84
2018-07-15T09:02:51.696Z,101806.29
2018-07-15T09:05:19.740Z,101805.25
2018-07-15T09:07:47.796Z,101805.05
2018-07-15T09:10:15.851Z,101808.12
2018-07-15T09:12:43.946Z,101812.44
2018-07-15T09:15:11.933Z,101815.20
2018-07-15T09:17:39.991Z,101817.17
2018-07-15T09:20:08.041Z,101811.20
2018-07-15T09:22:36.088Z,101819.55
2018-07-15T09:25:04.151Z,101814.76
2018-07-15T09:27:32.208Z,101816.54
2018-07-15T09:30:00.271Z,101817.17
2018-07-15T09:32:28.319Z,101815.95
2018-07-15T09:34:56.376Z,101809.81
2018-07-15T09:37:24.416Z,101809.21
2018-07-15T09:39:52.447Z,101809.27
2018-07-15T09:42:20.492Z,101806.66
2018-07-15T09:44:48.548Z,101796.86
2018-07-15T09:47:16.639Z,101808.34
2018-07-15T09:49:44.700Z,101797.79
2018-07-15T09:52:12.750Z,101800.73
2018-07-15T09:54:40.819Z,101807.98
2018-07-15T09:57:08.878Z,101805.13
2018-07-15T09:59:36.916Z,101808.39
2018-07-15T10:02:04.986Z,101810.24
2018-07-15T10:04:33.050Z,101805.93
2018-07-15T10:07:01.093Z,101804.97
2018-07-15T10:09:29.144Z,101806.68
2018-07-15T10:11:57.203Z,101802.52
2018-07-15T10:14:25.240Z,101804.42
2018-07-15T10:16:53.303Z,101802.05
2018-07-15T10:19:21.374Z,101797.11
2018-07-15T10:21:49.454Z,101796.70
2018-07-15T10:24:17.515Z,101800.09
2018-07-15T10:26:45.639Z,101792.74
2018-07-15T10:29:13.684Z,101795.84
2018-07-15T10:31:41.724Z,101790.64
2018-07-15T10:34:09.828Z,101794.06
2018-07-15T10:36:37.879Z,101788.61
2018-07-15T10:39:06.216Z,101786.66
2018-07-15T10:41:34.184Z,101783.24
2018-07-15T10:44:02.262Z,101776.95
2018-07-15T10:46:30.288Z,101777.56
2018-07-15T10:48:58.367Z,101778.23
2018-07-15T10:51:26.436Z,101770.02
2018-07-15T10:53:54.483Z,101779.98
2018-07-15T10:56:22.525Z,101774.05
2018-07-15T10:58:50.617Z,101774.99
2018-07-15T11:01:18.663Z,101774.16
2018-07-15T11:03:46.735Z,101772.90
2018-07-15T11:06:14.828Z,101773.42
2018-07-15T11:08:42.815Z,101766.97
2018-07-15T11:11:10.864Z,101767.69
2018-07-15T11:13:38.935Z,101769.39
2018-07-15T11:16:06.992Z,101763.75
2018-07-15T11:18:35.053Z,101760.78
2018-07-15T11:21:03.095Z,101761.77
2018-07-15T11:23:31.164Z,101755.87
2018-07-15T11:25:59.201Z,101753.50
2018-07-15T11:28:27.245Z,101753.25
2018-07-15T11:30:55.399Z,101758.42
2018-07-15T11:33:23.348Z,101763.02
2018-07-15T11:35:51.388Z,101755.00
2018-07-15T11:38:19.453Z,101761.52
2018-07-15T11:40:47.503Z,101758.72
2018-07-15T11:43:15.565Z,101750.05
2018-07-15T11:45:43.637Z,101751.83
2018-07-15T11:48:11.727Z,101749.91
2018-07-15T11:50:39.724Z,101743.78
2018-07-15T11:53:07.787Z,101750.00
2018-07-15T11:55:35.855Z,101751.59
2018-07-15T11:58:03.885Z,101744.86
2018-07-15T12:00:31.936Z,101741.70
2018-07-15T12:03:00.005Z,101739.66
2018-07-15T12:05:28.090Z,101730.45
2018-07-15T12:07:56.125Z,101724.33
2018-07-15T12:10:24.177Z,101723.01
2018-07-15T12:12:52.228Z,101725.84
2018-07-15T12:15:20.275Z,101734.93
2018-07-15T12:17:48.334Z,101729.10
2018-07-15T12:20:16.403Z,101734.39
2018-07-15T12:22:44.448Z,101735.06
2018-07-15T12:25:12.491Z,101724.53
2018-07-15T12:27:40.525Z,101715.41
2018-07-15T12:30:08.595Z,101716.58
2018-07-15T12:32:36.656Z,101712.81
2018-07-15T12:35:04.775Z,101707.76
2018-07-15T12:37:32.805Z,101703.95
2018-07-15T12:40:00.866Z,101698.53
2018-07-15T12:42:28.908Z,101700.43
2018-07-15T12:44:56.964Z,101692.88
2018-07-15T12:47:25.013Z,101696.42
2018-07-15T12:49:53.081Z,101695.14
2018-07-15T12:52:21.133Z,101685.94
2018-07-15T12:54:49.172Z,101688.59
2018-07-15T12:57:17.240Z,101682.48
2018-07-15T12:59:45.312Z,101679.62
2018-07-15T13:02:13.372Z,101671.72
2018-07-15T13:04:41.440Z,101667.91
2018-07-15T13:07:09.516Z,101672.16
2018-07-15T13:09:37.576Z,101666.42
2018-07-15T13:12:05.637Z,101663.79
2018-07-15T13:14:33.739Z,101660.66
2018-07-15T13:17:01.777Z,101657.30
2018-07-15T13:19:29.823Z,101655.42
2018-07-15T13:21:57.876Z,101659.33
2018-07-15T13:24:25.956Z,101650.11
2018-07-15T13:26:54.026Z,101653.57
2018-07-15T13:29:22.071Z,101646.09
2018-07-15T13:31:50.112Z,101650.34
2018-07-15T13:34:18.180Z,101648.55
2018-07-15T13:36:46.267Z,101646.12
2018-07-15T13:39:14.264Z,101638.29
2018-07-15T13:41:42.375Z,101640.80
2018-07-15T13:44:10.360Z,101635.30
2018-07-15T13:46:38.452Z,101626.86
2018-07-15T13:49:06.721Z,101624.38
2018-07-15T13:51:34.777Z,101623.66
2018-07-15T13:54:02.820Z,101622.19
2018-07-15T13:56:30.881Z,101621.69
2018-07-15T13:58:58.940Z,101621.59
2018-07-15T14:01:26.992Z,101618.50
2018-07-15T14:03:55.044Z,101615.03
2018-07-15T14:06:23.104Z,101623.42
2018-07-15T14:08:51.499Z,101614.11
2018-07-15T14:11:19.541Z,101614.38
2018-07-15T14:13:47.584Z,101610.86
2018-07-15T14:16:15.645Z,101617.73
2018-07-15T14:18:43.727Z,101611.52
2018-07-15T14:21:11.784Z,101607.41
2018-07-15T14:23:39.834Z,101609.89
2018-07-15T14:26:07.888Z,101607.89
2018-07-15T14:28:35.944Z,101604.24
2018-07-15T14:31:04.047Z,101610.22
2018-07-15T14:33:32.120Z,101600.01
2018-07-15T14:36:00.165Z,101592.24
2018-07-15T14:38:28.226Z,101595.23
2018-07-15T14:40:56.276Z,101592.03
2018-07-15T14:43:24.334Z,101587.29
2018-07-15T14:45:52.371Z,101580.57
2018-07-15T14:48:20.464Z,101582.84
2018-07-15T14:50:48.559Z,101584.83
2018-07-15T14:53:16.592Z,101582.63
2018-07-15T14:55:44.677Z,101590.86
2018-07-15T14:58:12.717Z,101591.64
2018-07-15T15:00:40.781Z,101588.27
2018-07-15T15:03:08.888Z,101575.48
2018-07-15T15:05:36.937Z,101576.13
2018-07-15T15:08:05.052Z,101574.59
2018-07-15T15:10:33.335Z,101578.37
2018-07-15T15:13:02.139Z,101574.09
2018-07-15T15:15:30.192Z,101569.73
2018-07-15T15:17:58.248Z,101567.17
2018-07-15T15:20:26.340Z,101560.56
2018-07-15T15:22:54.390Z,101562.25
2018-07-15T15:25:22.485Z,101570.42
2018-07-15T15:27:50.532Z,101566.72
2018-07-15T15:30:18.578Z,101566.27
2018-07-15T15:32:46.656Z,101560.91
2018-07-15T15:35:14.722Z,101557.64
2018-07-15T15:37:42.796Z,101558.32
2018-07-15T15:40:10.931Z,101558.37
2018-07-15T15:42:38.976Z,101556.42
2018-07-15T15:45:07.305Z,101544.94
2018-07-15T15:47:38.284Z,101551.08
2018-07-15T15:50:12.820Z,101551.70
2018-07-15T15:52:40.892Z,101543.61
2018-07-15T15:55:08.935Z,101543.98
2018-07-15T15:57:36.980Z,101540.16
2018-07-15T16:00:05.331Z,101530.16
2018-07-15T16:02:33.364Z,101529.80
2018-07-15T16:05:01.424Z,101526.23
2018-07-15T16:07:29.475Z,101522.66
2018-07-15T16:09:57.524Z,101514.72
2018-07-15T16:12:25.576Z,101510.09
2018-07-15T16:14:53.632Z,101512.41
2018-07-15T16:17:21.687Z,101508.66
2018-07-15T16:19:49.741Z,101501.29
2018-07-15T16:22:17.792Z,101499.78
2018-07-15T16:24:45.832Z,101490.42
2018-07-15T16:27:13.928Z,101483.86
2018-07-15T16:29:41.979Z,101487.08
2018-07-15T16:32:10.021Z,101490.55
2018-07-15T16:34:38.075Z,101487.81
2018-07-15T16:37:06.114Z,101488.98
2018-07-15T16:39:34.181Z,101484.25
2018-07-15T16:42:02.268Z,101481.53
2018-07-15T16:44:30.323Z,101482.95
2018-07-15T16:46:58.383Z,101484.22
2018-07-15T16:49:26.424Z,101482.18
2018-07-15T16:51:54.471Z,101481.73
2018-07-15T16:54:22.552Z,101477.72
2018-07-15T16:56:50.881Z,101481.44
2018-07-15T16:59:18.963Z,101480.91
2018-07-15T17:01:47.011Z,101475.66
2018-07-15T17:04:15.054Z,101478.74
2018-07-15T17:06:43.108Z,101476.00
2018-07-15T17:09:11.156Z,101480.19
2018-07-15T17:11:39.191Z,101478.38
2018-07-15T17:14:07.336Z,101476.17
2018-07-15T17:16:35.321Z,101477.00
2018-07-15T17:19:03.371Z,101480.30
2018-07-15T17:21:31.412Z,101475.88
2018-07-15T17:23:59.463Z,101479.94
2018-07-15T17:26:27.519Z,101480.11
2018-07-15T17:28:55.560Z,101478.23
2018-07-15T17:31:23.628Z,101477.83
2018-07-15T17:33:51.684Z,101474.05
2018-07-15T17:36:19.715Z,101478.89
2018-07-15T17:38:47.757Z,101477.30
2018-07-15T17:41:15.788Z,101478.64
2018-07-15T17:43:44.243Z,101476.37
2018-07-15T17:46:12.339Z,101477.78
2018-07-15T17:48:40.416Z,101481.36
2018-07-15T17:51:08.479Z,101476.44
2018-07-15T17:53:37.024Z,101475.52
2018-07-15T17:56:05.172Z,101473.80
2018-07-15T17:58:33.261Z,101475.73
2018-07-15T18:01:01.301Z,101474.89
2018-07-15T18:03:29.376Z,101481.94
2018-07-15T18:05:57.444Z,101475.45
2018-07-15T18:08:25.477Z,101477.17
2018-07-15T18:10:53.513Z,101477.51
2018-07-15T18:13:21.579Z,101476.63
2018-07-15T18:15:49.612Z,101480.28
2018-07-15T18:18:17.672Z,101483.93
2018-07-15T18:20:45.796Z,101483.42
2018-07-15T18:23:13.818Z,101482.48
2018-07-15T18:25:41.849Z,101485.14
2018-07-15T18:28:09.920Z,101480.52
2018-07-15T18:30:37.957Z,101480.61
2018-07-15T18:33:06.056Z,101484.25
2018-07-15T18:35:34.108Z,101477.05
2018-07-15T18:38:02.188Z,101490.28
2018-07-15T18:40:30.240Z,101497.66
2018-07-15T18:42:58.316Z,101495.12
2018-07-15T18:45:26.346Z,101496.44
2018-07-15T18:47:54.480Z,101496.73
2018-07-15T18:50:22.528Z,101506.71
2018-07-15T18:52:50.593Z,101502.91
2018-07-15T18:55:18.643Z,101507.87
2018-07-15T18:57:46.711Z,101505.52
2018-07-15T19:00:14.760Z,101513.64
2018-07-15T19:02:42.809Z,101505.42
2018-07-15T19:05:10.850Z,101512.44
2018-07-15T19:07:38.928Z,101512.92
2018-07-15T19:10:06.961Z,101507.91
2018-07-15T19:12:35.023Z,101507.27
2018-07-15T19:15:03.115Z,101511.57
2018-07-15T19:17:31.160Z,101508.58
2018-07-15T19:19:59.205Z,101512.31
2018-07-15T19:22:27.244Z,101520.48
2018-07-15T19:24:55.600Z,101521.34
2018-07-15T19:27:23.640Z,101522.99
2018-07-15T19:29:51.704Z,101522.09
2018-07-15T19:32:19.736Z,101525.17
2018-07-15T19:34:47.781Z,101525.64
2018-07-15T19:37:15.820Z,101526.11
2018-07-15T19:39:43.864Z,101524.53
2018-07-15T19:42:11.904Z,101527.81
2018-07-15T19:44:39.962Z,101534.72
2018-07-15T19:47:07.996Z,101537.58
2018-07-15T19:49:36.404Z,101539.66
2018-07-15T19:52:04.469Z,101543.75
2018-07-15T19:54:32.580Z,101542.39
2018-07-15T19:57:00.671Z,101545.91
2018-07-15T19:59:28.732Z,101544.95
2018-07-15T20:01:56.781Z,101542.77
2018-07-15T20:04:24.829Z,101548.45
2018-07-15T20:06:52.915Z,101550.49
2018-07-15T20:09:20.970Z,101550.73
2018-07-15T20:11:49.015Z,101556.59
2018-07-15T20:14:17.077Z,101553.77
2018-07-15T20:16:45.127Z,101561.87
2018-07-15T20:19:13.226Z,101559.03
2018-07-15T20:21:41.357Z,101553.41
2018-07-15T20:24:09.364Z,101555.44
2018-07-15T20:26:37.423Z,101560.27
2018-07-15T20:29:05.484Z,101554.04
2018-07-15T20:31:33.536Z,101558.83
2018-07-15T20:34:01.621Z,101558.44
2018-07-15T20:36:29.680Z,101553.59
2018-07-15T20:38:57.744Z,101559.44
2018-07-15T20:41:25.792Z,101559.61
2018-07-15T20:43:53.855Z,101562.44
2018-07-15T20:46:21.921Z,101565.23
2018-07-15T20:48:49.964Z,101561.16
2018-07-15T20:51:18.028Z,101564.53
2018-07-15T20:53:46.081Z,101568.72
2018-07-15T20:56:14.159Z,101563.44
2018-07-15T20:58:42.195Z,101567.02
2018-07-15T21:01:10.249Z,101565.58
2018-07-15T21:03:38.296Z,101559.30
2018-07-15T21:06:07.140Z,101559.42
2018-07-15T21:08:35.358Z,101560.14
2018-07-15T21:11:03.414Z,101561.10
2018-07-15T21:13:31.453Z,101561.44
2018-07-15T21:15:59.492Z,101563.19
2018-07-15T21:18:27.536Z,101569.17
2018-07-15T21:20:55.589Z,101561.66
2018-07-15T21:23:23.672Z,101570.84
2018-07-15T21:25:51.717Z,101566.98
2018-07-15T21:28:19.783Z,101568.32
2018-07-15T21:30:47.831Z,101568.02
2018-07-15T21:33:15.881Z,101565.77
2018-07-15T21:35:43.960Z,101558.48
2018-07-15T21:38:12.081Z,101559.88
2018-07-15T21:40:40.188Z,101564.66
2018-07-15T21:43:08.242Z,101563.81
2018-07-15T21:45:36.326Z,101568.81
2018-07-15T21:48:04.445Z,101567.97
2018-07-15T21:50:32.516Z,101564.09
2018-07-15T21:53:00.564Z,101564.06
2018-07-15T21:55:28.755Z,101571.22
2018-07-15T21:57:56.800Z,101574.76
2018-07-15T22:00:24.869Z,101582.30
2018-07-15T22:02:53.030Z,101576.16
2018-07-15T22:05:21.080Z,101578.91
2018-07-15T22:08:00.688Z,101575.02
2018-07-15T22:10:36.718Z,101580.37
2018-07-15T22:13:04.748Z,101584.91
2018-07-15T22:15:32.800Z,101579.99
2018-07-15T22:18:00.848Z,101585.80
2018-07-15T22:20:28.892Z,101581.91
2018-07-15T22:22:56.993Z,101589.31
2018-07-15T22:25:25.092Z,101593.69
2018-07-15T22:27:53.147Z,101586.63
2018-07-15T22:30:21.219Z,101583.00
2018-07-15T22:32:49.243Z,101581.40
2018-07-15T22:35:17.296Z,101578.31
2018-07-15T22:37:45.343Z,101573.45
2018-07-15T22:40:13.419Z,101583.81
2018-07-15T22:42:41.456Z,101585.56
2018-07-15T22:45:09.528Z,101583.89
2018-07-15T22:47:37.609Z,101589.22
2018-07-15T22:50:05.648Z,101590.16
2018-07-15T22:52:33.700Z,101594.08
2018-07-15T22:55:01.868Z,101587.41
2018-07-15T22:57:29.905Z,101591.33
2018-07-15T22:59:57.944Z,101594.09
2018-07-15T23:02:25.991Z,101585.52
2018-07-15T23:06:03.070Z,101580.39
2018-07-15T23:08:32.212Z,101585.61
2018-07-15T23:11:00.272Z,101574.84
2018-07-15T23:13:28.344Z,101580.11
2018-07-15T23:15:56.392Z,101579.19
2018-07-15T23:18:24.450Z,101580.67
2018-07-15T23:20:52.673Z,101581.00
2018-07-15T23:23:20.742Z,101577.91
2018-07-15T23:25:48.812Z,101580.36
2018-07-15T23:28:17.604Z,101578.47
2018-07-15T23:30:46.083Z,101578.17
2018-07-15T23:33:14.200Z,101569.47
2018-07-15T23:35:42.233Z,101573.58
2018-07-15T23:38:10.263Z,101566.48
2018-07-15T23:40:38.300Z,101574.00
2018-07-15T23:43:06.339Z,101567.70
2018-07-15T23:45:35.209Z,101570.34
2018-07-15T23:48:03.250Z,101568.06
2018-07-15T23:50:31.283Z,101569.39
2018-07-15T23:52:59.355Z,101570.73
2018-07-15T23:55:27.397Z,101569.47
2018-07-15T23:57:55.564Z,101570.36
